Terminal Aerodrome Forecast
Issued by NWS Dodge City, KS

Home | Current Version | Previous Version | Text Only | Print | Product List | Glossary On
Versions: 1 2 3 4 5 6 7 8 9 10 11 12 13 14 15 16 17 18 19 20 21 22 23 24 25 26 27 28 29 30 31 32 33 34 35 36 37 38 39 40 41 42 43 44 45 46 47 48 49 50
000
FTUS43 KDDC 161120
TAFDDC
TAF
KDDC 161120Z 1612/1712 17012KT P6SM VCTS BKN060CB
     FM161500 15012KT P6SM BKN050
      TEMPO 1619/1623 5SM TSRA OVC030CB
     FM170000 14010KT P6SM VCTS OVC040CB=

USA.gov is the U.S. government's official web portal to all federal, state and local government web resources and services.